createdAt,value
2023-02-09T00:02:06.224Z,45.00
2023-02-09T00:04:34.831Z,45.00
2023-02-09T00:07:01.955Z,44.90
2023-02-09T00:09:29.054Z,44.90
2023-02-09T00:12:14.502Z,44.80
2023-02-09T00:14:41.133Z,44.80
2023-02-09T00:17:08.768Z,44.90
2023-02-09T00:19:35.437Z,44.90
2023-02-09T00:22:02.176Z,44.90
2023-02-09T00:24:28.841Z,44.80
2023-02-09T00:26:55.575Z,44.80
2023-02-09T00:29:25.266Z,44.80
2023-02-09T00:31:52.070Z,44.80
2023-02-09T00:34:19.608Z,44.80
2023-02-09T00:36:46.496Z,44.80
2023-02-09T00:39:13.181Z,44.90
2023-02-09T00:41:58.758Z,44.80
2023-02-09T00:44:25.431Z,44.80
2023-02-09T00:46:52.335Z,44.80
2023-02-09T00:49:18.991Z,44.90
2023-02-09T00:51:46.510Z,44.80
2023-02-09T00:54:13.525Z,44.80
2023-02-09T00:56:40.266Z,44.80
2023-02-09T00:59:06.927Z,44.80
2023-02-09T01:01:33.693Z,44.70
2023-02-09T01:04:00.367Z,44.80
2023-02-09T01:06:28.094Z,44.70
2023-02-09T01:08:54.785Z,44.70
2023-02-09T01:11:22.980Z,44.80
2023-02-09T01:13:49.681Z,44.80
2023-02-09T01:16:17.012Z,44.70
2023-02-09T01:18:43.692Z,44.70
2023-02-09T01:21:17.926Z,44.70
2023-02-09T01:23:45.002Z,44.70
2023-02-09T01:26:11.825Z,45.30
2023-02-09T01:28:38.514Z,44.70
2023-02-09T01:31:17.581Z,44.70
2023-02-09T01:33:44.343Z,44.70
2023-02-09T01:36:11.027Z,44.70
2023-02-09T01:38:43.887Z,44.60
2023-02-09T01:41:10.759Z,44.70
2023-02-09T01:43:56.362Z,44.70
2023-02-09T01:46:23.400Z,44.70
2023-02-09T01:48:51.048Z,44.60
2023-02-09T01:51:17.754Z,44.70
2023-02-09T01:53:44.597Z,44.60
2023-02-09T01:56:12.463Z,44.60
2023-02-09T01:58:45.249Z,44.60
2023-02-09T02:01:14.978Z,44.70
2023-02-09T02:03:41.703Z,44.60
2023-02-09T02:06:12.270Z,44.60
2023-02-09T02:08:44.337Z,44.70
2023-02-09T02:11:11.088Z,44.60
2023-02-09T02:13:40.823Z,44.50
2023-02-09T02:16:23.907Z,44.60
2023-02-09T02:18:59.761Z,45.20
2023-02-09T02:21:32.530Z,44.60
2023-02-09T02:24:34.810Z,44.50
2023-02-09T02:27:04.597Z,45.10
2023-02-09T02:29:40.417Z,44.40
2023-02-09T02:32:09.577Z,44.40
2023-02-09T02:34:42.524Z,44.50
2023-02-09T02:37:12.281Z,44.40
2023-02-09T02:39:48.073Z,44.50
2023-02-09T02:42:40.606Z,44.40
2023-02-09T02:45:12.258Z,44.50
2023-02-09T02:47:39.490Z,44.40
2023-02-09T02:50:08.401Z,44.30
2023-02-09T02:52:35.070Z,44.40
2023-02-09T02:55:03.543Z,44.40
2023-02-09T02:57:30.932Z,44.40
2023-02-09T02:59:59.072Z,44.50
2023-02-09T03:02:33.826Z,44.30
2023-02-09T03:05:00.617Z,44.40
2023-02-09T03:07:33.641Z,45.00
2023-02-09T03:10:26.777Z,44.40
2023-02-09T03:12:53.494Z,44.40
2023-02-09T03:15:32.688Z,44.50
2023-02-09T03:18:14.669Z,44.40
2023-02-09T03:21:13.927Z,44.40
2023-02-09T03:23:40.618Z,44.40
2023-02-09T03:26:08.093Z,44.30
2023-02-09T03:28:35.186Z,44.40
2023-02-09T03:31:01.986Z,44.30
2023-02-09T03:33:29.658Z,44.30
2023-02-09T03:35:56.850Z,44.30
2023-02-09T03:38:23.559Z,44.30
2023-02-09T03:40:50.218Z,44.30
2023-02-09T03:43:16.923Z,44.20
2023-02-09T03:45:43.570Z,44.30
2023-02-09T03:48:10.251Z,44.30
2023-02-09T03:50:37.051Z,44.20
2023-02-09T03:53:06.725Z,44.30
2023-02-09T03:55:33.612Z,44.20
2023-02-09T03:58:00.489Z,44.30
2023-02-09T04:00:27.246Z,44.20
2023-02-09T04:02:53.979Z,44.90
2023-02-09T04:05:26.703Z,44.20
2023-02-09T04:07:53.373Z,44.20
2023-02-09T04:10:20.112Z,44.20
2023-02-09T04:12:48.313Z,44.20
2023-02-09T04:15:14.993Z,44.20
2023-02-09T04:17:41.672Z,44.20
2023-02-09T04:20:08.440Z,44.20
2023-02-09T04:22:35.121Z,44.20
2023-02-09T04:25:01.790Z,44.20
2023-02-09T04:27:28.577Z,44.20
2023-02-09T04:30:01.337Z,44.10
2023-02-09T04:32:28.024Z,44.20
2023-02-09T04:34:54.676Z,44.20
2023-02-09T04:37:21.469Z,44.00
2023-02-09T04:39:48.140Z,44.20
2023-02-09T04:42:21.044Z,44.10
2023-02-09T04:44:47.753Z,44.20
2023-02-09T04:47:14.411Z,44.10
2023-02-09T04:49:42.663Z,44.10
2023-02-09T04:52:09.371Z,44.10
2023-02-09T04:54:36.050Z,44.10
2023-02-09T04:57:21.349Z,44.00
2023-02-09T04:59:48.094Z,44.10
2023-02-09T05:02:14.815Z,44.00
2023-02-09T05:04:41.621Z,44.00
2023-02-09T05:07:08.330Z,44.00
2023-02-09T05:09:35.013Z,44.00
2023-02-09T05:12:01.656Z,44.00
2023-02-09T05:14:28.417Z,43.90
2023-02-09T05:16:55.157Z,43.90
2023-02-09T05:19:21.844Z,43.90
2023-02-09T05:21:48.503Z,43.90
2023-02-09T05:24:15.171Z,43.90
2023-02-09T05:26:41.837Z,43.90
2023-02-09T05:29:09.629Z,43.90
2023-02-09T05:31:36.524Z,43.90
2023-02-09T05:34:03.468Z,43.90
2023-02-09T05:36:30.142Z,43.90
2023-02-09T05:38:56.822Z,44.00
2023-02-09T05:41:42.250Z,44.10
2023-02-09T05:44:15.119Z,44.00
2023-02-09T05:46:41.773Z,44.60
2023-02-09T05:49:08.532Z,43.90
2023-02-09T05:51:35.213Z,44.00
2023-02-09T05:54:02.030Z,44.00
2023-02-09T05:56:28.828Z,44.00
2023-02-09T05:58:55.515Z,44.00
2023-02-09T06:01:22.230Z,44.00
2023-02-09T06:03:48.984Z,44.00
2023-02-09T06:06:15.743Z,44.00
2023-02-09T06:08:42.412Z,44.00
2023-02-09T06:11:09.091Z,43.20
2023-02-09T06:13:35.795Z,44.00
2023-02-09T06:16:02.534Z,44.40
2023-02-09T06:18:29.295Z,44.80
2023-02-09T06:20:56.064Z,44.50
2023-02-09T06:23:22.887Z,44.60
2023-02-09T06:25:53.157Z,44.20
2023-02-09T06:28:26.000Z,44.60
2023-02-09T06:30:59.032Z,44.50
2023-02-09T06:33:25.753Z,44.50
2023-02-09T06:35:52.617Z,44.50
2023-02-09T06:38:19.357Z,44.50
2023-02-09T06:40:46.762Z,44.50
2023-02-09T06:43:13.579Z,44.40
2023-02-09T06:45:40.476Z,45.10
2023-02-09T06:48:07.330Z,44.50
2023-02-09T06:50:34.623Z,44.50
2023-02-09T06:53:01.419Z,44.50
2023-02-09T06:55:28.241Z,45.00
2023-02-09T06:57:55.088Z,44.50
2023-02-09T07:00:27.994Z,44.40
2023-02-09T07:02:58.340Z,44.40
2023-02-09T07:05:25.129Z,44.30
2023-02-09T07:07:51.867Z,44.30
2023-02-09T07:10:24.561Z,44.30
2023-02-09T07:12:51.237Z,44.30
2023-02-09T07:15:20.954Z,44.20
2023-02-09T07:17:47.620Z,44.30
2023-02-09T07:20:14.355Z,44.10
2023-02-09T07:22:41.269Z,44.20
2023-02-09T07:25:07.949Z,44.20
2023-02-09T07:27:34.654Z,44.20
2023-02-09T07:30:01.581Z,44.20
2023-02-09T07:32:28.459Z,44.10
2023-02-09T07:35:01.247Z,44.20
2023-02-09T07:37:28.007Z,44.20
2023-02-09T07:39:54.721Z,44.20
2023-02-09T07:42:23.359Z,44.20
2023-02-09T07:44:50.163Z,44.20
2023-02-09T07:47:17.248Z,44.10
2023-02-09T07:49:43.911Z,44.10
2023-02-09T07:52:10.731Z,44.20
2023-02-09T07:54:37.426Z,44.10
2023-02-09T07:57:07.546Z,44.10
2023-02-09T07:59:34.242Z,44.20
2023-02-09T08:02:01.026Z,44.10
2023-02-09T08:04:27.714Z,44.10
2023-02-09T08:06:54.571Z,44.00
2023-02-09T08:09:21.632Z,44.10
2023-02-09T08:11:57.221Z,44.00
2023-02-09T08:14:25.346Z,44.10
2023-02-09T08:16:52.574Z,44.60
2023-02-09T08:19:20.137Z,43.90
2023-02-09T08:21:46.914Z,44.00
2023-02-09T08:24:13.567Z,43.90
2023-02-09T08:26:40.301Z,43.90
2023-02-09T08:29:07.431Z,43.90
2023-02-09T08:31:34.208Z,43.90
2023-02-09T08:34:00.868Z,44.50
2023-02-09T08:36:27.521Z,43.80
2023-02-09T08:38:54.106Z,43.90
2023-02-09T08:41:20.723Z,43.90
2023-02-09T08:43:48.268Z,43.80
2023-02-09T08:46:14.968Z,43.90
2023-02-09T08:48:42.340Z,43.80
2023-02-09T08:51:09.461Z,43.90
2023-02-09T08:53:36.196Z,43.90
2023-02-09T08:56:02.856Z,43.80
2023-02-09T08:58:30.281Z,43.90
2023-02-09T09:00:57.290Z,43.90
2023-02-09T09:03:27.897Z,43.80
2023-02-09T09:05:58.126Z,43.80
2023-02-09T09:08:24.732Z,44.50
2023-02-09T09:10:51.363Z,43.80
2023-02-09T09:13:18.068Z,43.80
2023-02-09T09:15:45.776Z,43.80
2023-02-09T09:18:13.094Z,43.70
2023-02-09T09:20:39.998Z,43.70
2023-02-09T09:23:06.738Z,43.60
2023-02-09T09:25:33.418Z,43.60
2023-02-09T09:28:00.188Z,43.60
2023-02-09T09:30:27.094Z,43.60
2023-02-09T09:32:54.185Z,43.60
2023-02-09T09:35:20.860Z,43.60
2023-02-09T09:37:47.437Z,43.60
2023-02-09T09:40:20.679Z,43.60
2023-02-09T09:42:48.710Z,43.60
2023-02-09T09:45:16.518Z,43.60
2023-02-09T09:47:43.212Z,43.60
2023-02-09T09:50:14.597Z,43.60
2023-02-09T09:52:41.898Z,43.60
2023-02-09T09:55:08.984Z,43.60
2023-02-09T09:57:37.727Z,43.60
2023-02-09T10:00:04.460Z,43.60
2023-02-09T10:02:31.816Z,43.60
2023-02-09T10:05:02.529Z,43.60
2023-02-09T10:07:30.126Z,43.60
2023-02-09T10:10:02.486Z,43.60
2023-02-09T10:12:32.267Z,43.60
2023-02-09T10:14:58.935Z,43.60
2023-02-09T10:17:27.216Z,43.60
2023-02-09T10:20:14.150Z,43.60
2023-02-09T10:22:43.378Z,43.60
2023-02-09T10:25:32.664Z,43.60
2023-02-09T10:28:06.310Z,43.70
2023-02-09T10:30:33.098Z,43.60
2023-02-09T10:32:59.870Z,43.70
2023-02-09T10:35:28.260Z,43.70
2023-02-09T10:37:55.341Z,43.70
2023-02-09T10:40:29.006Z,43.80
2023-02-09T10:42:59.572Z,43.60
2023-02-09T10:45:39.865Z,43.70
2023-02-09T10:48:12.729Z,43.60
2023-02-09T10:51:02.716Z,44.20
2023-02-09T10:53:37.471Z,43.60
2023-02-09T10:56:05.515Z,43.60
2023-02-09T10:58:33.095Z,43.70
2023-02-09T11:01:01.438Z,43.50
2023-02-09T11:03:34.540Z,43.60
2023-02-09T11:06:14.390Z,43.60
2023-02-09T11:08:45.822Z,43.50
2023-02-09T11:11:15.725Z,43.70
2023-02-09T11:13:42.567Z,43.50
2023-02-09T11:16:36.605Z,43.70
2023-02-09T11:19:22.687Z,43.50
2023-02-09T11:21:49.426Z,43.50
2023-02-09T11:24:19.143Z,43.50
2023-02-09T11:26:49.901Z,43.50
2023-02-09T11:29:30.666Z,43.70
2023-02-09T11:32:16.059Z,43.40
2023-02-09T11:34:42.789Z,43.40
2023-02-09T11:37:23.092Z,43.50
2023-02-09T11:39:52.784Z,43.50
2023-02-09T11:42:45.382Z,43.50
2023-02-09T11:45:12.118Z,43.50
2023-02-09T11:47:58.367Z,43.50
2023-02-09T11:50:27.686Z,43.50
2023-02-09T11:52:59.809Z,43.50
2023-02-09T11:55:28.096Z,43.40
2023-02-09T11:57:57.071Z,43.40
2023-02-09T12:00:24.681Z,43.40
2023-02-09T12:02:54.574Z,43.50
2023-02-09T12:05:21.351Z,43.50
2023-02-09T12:07:48.854Z,43.40
2023-02-09T12:10:24.684Z,43.50
2023-02-09T12:13:00.429Z,43.40
2023-02-09T12:15:38.092Z,43.50
2023-02-09T12:18:24.026Z,43.40
2023-02-09T12:20:51.792Z,43.40
2023-02-09T12:23:30.740Z,43.50
2023-02-09T12:25:59.868Z,43.50
2023-02-09T12:28:29.804Z,43.50
2023-02-09T12:31:04.212Z,43.50
2023-02-09T12:33:46.356Z,43.40
2023-02-09T12:36:13.635Z,44.10
2023-02-09T12:38:49.450Z,43.50
2023-02-09T12:41:23.471Z,43.50
2023-02-09T12:43:50.806Z,43.50
2023-02-09T12:46:29.945Z,43.50
2023-02-09T12:49:06.638Z,43.50
2023-02-09T12:51:37.785Z,43.50
2023-02-09T12:54:23.303Z,43.50
2023-02-09T12:56:50.036Z,43.40
2023-02-09T12:59:23.599Z,43.40
2023-02-09T13:02:03.848Z,43.40
2023-02-09T13:04:50.789Z,43.40
2023-02-09T13:07:25.139Z,43.50
2023-02-09T13:09:58.568Z,43.40
2023-02-09T13:12:30.370Z,43.20
2023-02-09T13:14:57.102Z,43.40
2023-02-09T13:17:32.987Z,43.50
2023-02-09T13:20:17.579Z,43.30
2023-02-09T13:22:53.320Z,43.40
2023-02-09T13:25:27.429Z,43.40
2023-02-09T13:27:54.158Z,43.40
2023-02-09T13:30:33.113Z,43.40
2023-02-09T13:33:15.154Z,43.40
2023-02-09T13:35:45.802Z,43.40
2023-02-09T13:38:16.143Z,43.40
2023-02-09T13:40:47.048Z,43.40
2023-02-09T13:43:18.695Z,43.40
2023-02-09T13:45:49.293Z,43.40
2023-02-09T13:48:23.769Z,43.50
2023-02-09T13:50:50.844Z,43.50
2023-02-09T13:53:17.998Z,43.50
2023-02-09T13:55:47.201Z,43.50
2023-02-09T13:58:24.602Z,43.50
2023-02-09T14:00:52.054Z,43.50
2023-02-09T14:03:18.871Z,43.50
2023-02-09T14:05:50.740Z,43.50
2023-02-09T14:08:17.439Z,43.40
2023-02-09T14:10:45.165Z,43.60
2023-02-09T14:13:11.959Z,43.50
2023-02-09T14:16:01.085Z,43.50
2023-02-09T14:18:29.257Z,43.50
2023-02-09T14:21:03.186Z,43.50
2023-02-09T14:23:33.025Z,43.40
2023-02-09T14:26:05.910Z,43.50
2023-02-09T14:28:32.730Z,43.40
2023-02-09T14:30:59.514Z,43.50
2023-02-09T14:33:28.684Z,43.50
2023-02-09T14:35:56.411Z,43.50
2023-02-09T14:38:38.953Z,43.50
2023-02-09T14:41:18.852Z,43.50
2023-02-09T14:43:56.134Z,43.50
2023-02-09T14:46:22.916Z,43.60
2023-02-09T14:48:49.562Z,43.50
2023-02-09T14:51:16.284Z,43.60
2023-02-09T14:53:43.437Z,43.60
2023-02-09T14:56:36.451Z,43.60
2023-02-09T14:59:05.455Z,43.60
2023-02-09T15:01:32.452Z,43.60
2023-02-09T15:03:59.858Z,43.70
2023-02-09T15:06:33.316Z,43.60
2023-02-09T15:09:01.817Z,43.50
2023-02-09T15:11:47.275Z,43.60
2023-02-09T15:14:16.560Z,43.20
2023-02-09T15:16:49.399Z,44.20
2023-02-09T15:19:22.303Z,43.60
2023-02-09T15:22:05.252Z,43.70
2023-02-09T15:24:33.448Z,43.50
2023-02-09T15:27:01.160Z,43.60
2023-02-09T15:29:27.845Z,43.20
2023-02-09T15:31:55.334Z,43.50
2023-02-09T15:34:22.007Z,43.80
2023-02-09T15:36:48.682Z,43.80
2023-02-09T15:39:19.984Z,43.20
2023-02-09T15:42:05.258Z,43.60
2023-02-09T15:45:04.054Z,43.70
2023-02-09T15:47:48.932Z,43.50
2023-02-09T15:50:16.482Z,44.10
2023-02-09T15:52:43.277Z,43.50
2023-02-09T15:55:10.802Z,43.60
2023-02-09T15:57:37.810Z,43.60
2023-02-09T16:00:08.539Z,44.20
2023-02-09T16:02:35.690Z,43.60
2023-02-09T16:05:02.728Z,43.50
2023-02-09T16:07:29.444Z,43.70
2023-02-09T16:09:59.264Z,43.60
2023-02-09T16:12:26.113Z,43.70
2023-02-09T16:14:53.372Z,43.70
2023-02-09T16:17:20.174Z,43.70
2023-02-09T16:19:49.298Z,43.70
2023-02-09T16:22:18.827Z,43.30
2023-02-09T16:24:45.497Z,43.90
2023-02-09T16:27:17.026Z,43.70
2023-02-09T16:29:43.663Z,43.90
2023-02-09T16:32:17.105Z,43.80
2023-02-09T16:34:46.942Z,43.80
2023-02-09T16:37:17.617Z,44.00
2023-02-09T16:39:46.620Z,43.80
2023-02-09T16:42:13.757Z,43.80
2023-02-09T16:44:41.020Z,44.40
2023-02-09T16:47:10.859Z,43.80
2023-02-09T16:49:41.582Z,43.90
2023-02-09T16:52:11.676Z,43.70
2023-02-09T16:54:43.227Z,43.80
2023-02-09T16:57:13.828Z,43.70
2023-02-09T16:59:40.683Z,43.70
2023-02-09T17:02:24.604Z,43.70
2023-02-09T17:04:52.336Z,43.80
2023-02-09T17:07:19.036Z,43.80
2023-02-09T17:09:45.735Z,43.80
2023-02-09T17:12:12.441Z,43.70
2023-02-09T17:14:39.434Z,43.70
2023-02-09T17:17:07.238Z,43.80
2023-02-09T17:19:47.099Z,43.80
2023-02-09T17:22:14.900Z,43.80
2023-02-09T17:24:41.589Z,43.80
2023-02-09T17:27:10.571Z,43.80
2023-02-09T17:29:37.579Z,43.80
2023-02-09T17:32:07.695Z,43.80
2023-02-09T17:34:36.455Z,44.00
2023-02-09T17:37:04.155Z,44.00
2023-02-09T17:39:33.977Z,44.10
2023-02-09T17:42:00.982Z,44.00
2023-02-09T17:44:47.079Z,44.10
2023-02-09T17:47:15.638Z,44.10
2023-02-09T17:49:45.798Z,44.10
2023-02-09T17:52:32.932Z,44.10
2023-02-09T17:55:00.344Z,43.40
2023-02-09T17:57:28.219Z,43.80
2023-02-09T17:59:55.428Z,44.80
2023-02-09T18:02:23.063Z,44.20
2023-02-09T18:04:49.803Z,44.20
2023-02-09T18:07:20.586Z,44.10
2023-02-09T18:09:47.797Z,44.10
2023-02-09T18:12:19.692Z,44.10
2023-02-09T18:14:47.888Z,44.10
2023-02-09T18:17:15.632Z,44.10
2023-02-09T18:19:42.790Z,44.10
2023-02-09T18:22:11.005Z,44.20
2023-02-09T18:24:37.673Z,44.10
2023-02-09T18:27:04.809Z,44.20
2023-02-09T18:29:33.808Z,44.10
2023-02-09T18:32:01.010Z,44.10
2023-02-09T18:34:34.152Z,44.10
2023-02-09T18:37:02.212Z,44.10
2023-02-09T18:39:30.842Z,44.10
2023-02-09T18:42:03.375Z,44.10
2023-02-09T18:44:32.301Z,44.10
2023-02-09T18:47:00.650Z,44.20
2023-02-09T18:49:27.905Z,44.20
2023-02-09T18:52:00.100Z,44.40
2023-02-09T18:54:29.014Z,44.20
2023-02-09T18:56:56.414Z,44.40
2023-02-09T18:59:23.105Z,44.20
2023-02-09T19:01:50.730Z,44.30
2023-02-09T19:04:17.725Z,44.20
2023-02-09T19:06:44.816Z,44.10
2023-02-09T19:09:11.989Z,44.40
2023-02-09T19:11:38.681Z,44.20
2023-02-09T19:14:24.493Z,44.20
2023-02-09T19:16:51.822Z,44.30
2023-02-09T19:19:19.168Z,44.80
2023-02-09T19:21:47.611Z,44.20
2023-02-09T19:24:14.597Z,44.20
2023-02-09T19:26:41.422Z,44.10
2023-02-09T19:29:08.155Z,44.10
2023-02-09T19:31:35.046Z,44.20
2023-02-09T19:34:01.757Z,44.20
2023-02-09T19:36:28.599Z,44.10
2023-02-09T19:38:55.589Z,44.20
2023-02-09T19:41:23.631Z,44.20
2023-02-09T19:43:56.093Z,44.30
2023-02-09T19:46:24.304Z,44.30
2023-02-09T19:48:53.985Z,44.30
2023-02-09T19:51:21.076Z,45.00
2023-02-09T19:53:47.855Z,44.40
2023-02-09T19:56:16.880Z,44.50
2023-02-09T19:58:43.946Z,44.50
2023-02-09T20:01:10.682Z,44.40
2023-02-09T20:03:37.601Z,44.60
2023-02-09T20:06:09.021Z,44.40
2023-02-09T20:08:42.228Z,44.50
2023-02-09T20:11:09.919Z,44.40
2023-02-09T20:13:36.640Z,44.40
2023-02-09T20:16:07.587Z,44.50
2023-02-09T20:18:34.303Z,44.40
2023-02-09T20:21:01.032Z,44.50
2023-02-09T20:23:27.715Z,44.40
2023-02-09T20:25:59.715Z,44.40
2023-02-09T20:28:26.501Z,44.50
2023-02-09T20:30:53.163Z,44.40
2023-02-09T20:33:19.933Z,44.50
2023-02-09T20:35:46.651Z,44.40
2023-02-09T20:38:13.346Z,44.40
2023-02-09T20:40:43.039Z,44.40
2023-02-09T20:43:31.521Z,44.50
2023-02-09T20:46:22.591Z,45.00
2023-02-09T20:48:49.347Z,44.30
2023-02-09T20:51:16.114Z,44.40
2023-02-09T20:53:42.793Z,44.30
2023-02-09T20:56:09.511Z,44.30
2023-02-09T20:58:37.786Z,44.20
2023-02-09T21:01:07.714Z,44.30
2023-02-09T21:03:34.447Z,44.20
2023-02-09T21:06:01.113Z,44.20
2023-02-09T21:08:27.909Z,44.20
2023-02-09T21:10:55.326Z,44.20
2023-02-09T21:13:22.031Z,44.20
2023-02-09T21:15:48.713Z,44.20
2023-02-09T21:18:17.752Z,44.10
2023-02-09T21:20:45.064Z,44.20
2023-02-09T21:23:11.737Z,44.10
2023-02-09T21:25:38.561Z,44.20
2023-02-09T21:28:05.407Z,44.10
2023-02-09T21:30:32.178Z,44.10
2023-02-09T21:33:00.490Z,44.10
2023-02-09T21:35:27.177Z,44.10
2023-02-09T21:37:53.866Z,44.10
2023-02-09T21:40:20.680Z,44.10
2023-02-09T21:42:47.539Z,44.20
2023-02-09T21:45:14.245Z,44.10
2023-02-09T21:47:41.092Z,44.10
2023-02-09T21:50:08.465Z,44.10
2023-02-09T21:52:35.182Z,44.10
2023-02-09T21:55:02.094Z,44.10
2023-02-09T21:57:29.527Z,44.10
2023-02-09T21:59:56.317Z,44.10
2023-02-09T22:02:23.051Z,44.00
2023-02-09T22:04:52.728Z,44.10
2023-02-09T22:07:19.334Z,44.10
2023-02-09T22:09:45.966Z,44.00
2023-02-09T22:12:12.577Z,44.10
2023-02-09T22:14:39.244Z,44.00
2023-02-09T22:17:05.944Z,44.00
2023-02-09T22:19:33.651Z,44.00
2023-02-09T22:22:01.549Z,44.00
2023-02-09T22:24:28.426Z,44.00
2023-02-09T22:26:55.090Z,43.90
2023-02-09T22:29:21.847Z,43.90
2023-02-09T22:31:48.531Z,44.00
2023-02-09T22:34:15.467Z,44.00
2023-02-09T22:36:42.138Z,44.00
2023-02-09T22:39:08.974Z,44.00
2023-02-09T22:41:35.715Z,44.00
2023-02-09T22:44:03.756Z,44.00
2023-02-09T22:46:31.319Z,44.00
2023-02-09T22:48:58.763Z,44.00
2023-02-09T22:51:26.962Z,44.00
2023-02-09T22:53:57.218Z,44.00
2023-02-09T22:56:30.175Z,44.00
2023-02-09T22:58:57.284Z,44.00
2023-02-09T23:01:24.017Z,44.00
2023-02-09T23:03:50.796Z,44.00
2023-02-09T23:06:18.526Z,44.00
2023-02-09T23:08:45.260Z,44.00
2023-02-09T23:11:12.775Z,44.00
2023-02-09T23:13:39.525Z,44.00
2023-02-09T23:16:16.275Z,43.90
2023-02-09T23:18:52.899Z,43.90
2023-02-09T23:21:20.094Z,43.90
2023-02-09T23:23:53.184Z,44.00
2023-02-09T23:26:20.010Z,43.90
2023-02-09T23:28:46.768Z,43.90
2023-02-09T23:31:14.723Z,43.90
2023-02-09T23:33:41.477Z,43.90
2023-02-09T23:36:09.209Z,43.90
2023-02-09T23:38:36.036Z,43.90
2023-02-09T23:41:06.742Z,43.90
2023-02-09T23:43:33.779Z,44.00
2023-02-09T23:46:07.849Z,43.90
2023-02-09T23:48:37.875Z,43.90
2023-02-09T23:51:05.431Z,43.90
2023-02-09T23:53:32.137Z,43.90
2023-02-09T23:56:03.748Z,43.90
2023-02-09T23:58:40.202Z,43.90
